createdAt,value
2019-03-05T00:02:11.636Z,3.46
2019-03-05T00:07:19.301Z,3.04
2019-03-05T00:12:26.984Z,3.05
2019-03-05T00:17:34.706Z,3.04
2019-03-05T00:22:42.397Z,3.04
2019-03-05T00:27:50.026Z,3.38
2019-03-05T00:32:57.734Z,2.95
2019-03-05T00:38:05.376Z,3.14
2019-03-05T00:43:13.128Z,2.44
2019-03-05T00:48:20.808Z,2.25
2019-03-05T00:53:28.630Z,2.20
2019-03-05T00:58:36.264Z,2.18
2019-03-05T01:03:44.009Z,1.81
2019-03-05T01:08:51.676Z,2.25
2019-03-05T01:13:59.373Z,1.96
2019-03-05T01:19:07.060Z,2.16
2019-03-05T01:24:14.783Z,2.52
2019-03-05T01:29:22.449Z,2.57
2019-03-05T01:34:30.130Z,1.84
2019-03-05T01:39:37.824Z,2.07
2019-03-05T01:44:45.509Z,2.37
2019-03-05T01:49:53.226Z,1.91
2019-03-05T01:55:00.938Z,2.35
2019-03-05T02:00:08.656Z,1.89
2019-03-05T02:05:16.390Z,2.04
2019-03-05T02:10:24.033Z,2.41
2019-03-05T02:15:31.717Z,2.30
2019-03-05T02:20:39.432Z,2.64
2019-03-05T02:25:47.114Z,2.26
2019-03-05T02:30:54.834Z,2.13
2019-03-05T02:36:02.587Z,1.77
2019-03-05T02:41:10.264Z,2.11
2019-03-05T02:46:17.930Z,2.05
2019-03-05T02:51:25.622Z,2.28
2019-03-05T02:56:33.368Z,2.51
2019-03-05T03:01:41.075Z,2.08
2019-03-05T03:06:48.761Z,2.59
2019-03-05T03:11:56.428Z,2.84
2019-03-05T03:17:04.133Z,3.24
2019-03-05T03:22:11.813Z,3.64
2019-03-05T03:27:19.429Z,4.14
2019-03-05T03:32:27.125Z,4.23
2019-03-05T03:37:34.881Z,4.35
2019-03-05T03:42:42.570Z,4.45
2019-03-05T03:47:50.315Z,4.04
2019-03-05T03:52:58.000Z,4.74
2019-03-05T03:58:05.726Z,4.30
2019-03-05T04:03:13.420Z,3.91
2019-03-05T04:08:21.188Z,3.73
2019-03-05T04:13:28.894Z,4.18
2019-03-05T04:18:36.582Z,3.71
2019-03-05T04:23:44.257Z,3.81
2019-03-05T04:28:52.044Z,3.78
2019-03-05T04:33:59.717Z,4.11
2019-03-05T04:39:07.453Z,3.75
2019-03-05T04:44:15.186Z,4.08
2019-03-05T04:49:22.926Z,4.07
2019-03-05T04:54:30.624Z,3.91
2019-03-05T04:59:38.382Z,4.16
2019-03-05T05:04:46.068Z,3.99
2019-03-05T05:09:53.790Z,3.90
2019-03-05T05:15:01.470Z,4.31
2019-03-05T05:20:09.139Z,3.99
2019-03-05T05:25:16.816Z,4.16
2019-03-05T05:30:24.564Z,4.23
2019-03-05T05:35:32.238Z,4.14
2019-03-05T05:40:39.943Z,2.84
2019-03-05T05:45:47.615Z,2.77
2019-03-05T05:50:55.318Z,2.47
2019-03-05T05:56:02.987Z,2.50
2019-03-05T06:01:10.860Z,2.85
2019-03-05T06:06:18.533Z,3.00
2019-03-05T06:11:26.313Z,3.48
2019-03-05T06:16:33.976Z,4.11
2019-03-05T06:21:41.621Z,5.10
2019-03-05T06:26:49.348Z,4.91
2019-03-05T06:31:57.044Z,4.28
2019-03-05T06:37:04.721Z,6.06
2019-03-05T06:42:12.390Z,5.97
2019-03-05T06:47:19.994Z,5.77
2019-03-05T06:52:27.654Z,6.20
2019-03-05T06:57:35.292Z,6.39
2019-03-05T07:02:42.932Z,6.92
2019-03-05T07:07:50.566Z,5.29
2019-03-05T07:12:58.189Z,5.10
2019-03-05T07:18:05.849Z,5.11
2019-03-05T07:23:13.484Z,5.80
2019-03-05T07:28:21.190Z,5.03
2019-03-05T07:33:28.797Z,6.20
2019-03-05T07:38:36.488Z,6.56
2019-03-05T07:43:44.116Z,5.69
2019-03-05T07:48:51.747Z,6.10
2019-03-05T07:53:59.426Z,5.44
2019-03-05T07:59:07.058Z,4.62
2019-03-05T08:04:14.796Z,5.45
2019-03-05T08:09:22.437Z,4.30
2019-03-05T08:14:30.151Z,4.64
2019-03-05T08:19:38.137Z,4.63
2019-03-05T08:24:45.885Z,5.43
2019-03-05T08:29:53.623Z,4.64
2019-03-05T08:35:01.385Z,4.53
2019-03-05T08:40:09.012Z,5.23
2019-03-05T08:45:28.436Z,4.57
2019-03-05T08:50:23.904Z,4.74
2019-03-05T08:55:31.613Z,4.92
2019-03-05T09:00:39.249Z,4.91
2019-03-05T09:05:46.934Z,5.84
2019-03-05T09:10:54.617Z,4.87
2019-03-05T09:16:02.309Z,5.01
2019-03-05T09:21:09.936Z,4.87
2019-03-05T09:26:17.579Z,5.12
2019-03-05T09:31:25.254Z,5.24
2019-03-05T09:36:32.945Z,5.16
2019-03-05T09:41:40.627Z,5.04
2019-03-05T09:46:48.289Z,5.15
2019-03-05T09:51:55.960Z,5.17
2019-03-05T09:57:03.641Z,4.55
2019-03-05T10:02:11.316Z,4.84
2019-03-05T10:07:19.429Z,5.15
2019-03-05T10:12:26.216Z,5.03
2019-03-05T10:17:37.808Z,5.25
2019-03-05T10:22:41.066Z,4.80
2019-03-05T10:27:48.687Z,4.66
2019-03-05T10:32:56.439Z,4.37
2019-03-05T10:38:04.104Z,3.84
2019-03-05T10:43:11.796Z,3.43
2019-03-05T10:48:19.492Z,3.44
2019-03-05T10:53:27.146Z,3.23
2019-03-05T10:58:34.798Z,2.95
2019-03-05T11:03:42.422Z,2.97
2019-03-05T11:08:50.086Z,3.17
2019-03-05T11:13:57.693Z,3.24
2019-03-05T11:19:05.418Z,3.58
2019-03-05T11:24:13.042Z,3.25
2019-03-05T11:29:20.769Z,3.35
2019-03-05T11:34:28.412Z,3.03
2019-03-05T11:39:36.088Z,3.41
2019-03-05T11:44:55.754Z,3.23
2019-03-05T11:49:51.324Z,3.03
2019-03-05T11:54:58.948Z,2.96
2019-03-05T12:00:06.600Z,3.17
2019-03-05T12:05:14.240Z,3.11
2019-03-05T12:10:21.909Z,4.06
2019-03-05T12:15:29.616Z,3.53
2019-03-05T12:20:37.303Z,3.50
2019-03-05T12:25:44.970Z,3.21
2019-03-05T12:30:52.633Z,3.39
2019-03-05T12:36:00.330Z,3.72
2019-03-05T12:41:07.993Z,4.02
2019-03-05T12:46:15.912Z,3.58
2019-03-05T12:51:23.605Z,4.53
2019-03-05T12:56:31.333Z,4.08
2019-03-05T13:01:39.022Z,4.56
2019-03-05T13:06:46.652Z,4.70
2019-03-05T13:11:54.391Z,4.96
2019-03-05T13:17:02.081Z,4.02
2019-03-05T13:22:09.775Z,3.60
2019-03-05T13:27:18.790Z,3.04
2019-03-05T13:32:24.628Z,3.48
2019-03-05T13:37:32.332Z,3.39
2019-03-05T13:42:40.017Z,3.16
2019-03-05T13:47:47.846Z,2.85
2019-03-05T13:52:55.956Z,2.79
2019-03-05T13:58:02.797Z,3.15
2019-03-05T14:03:10.491Z,2.94
2019-03-05T14:08:18.176Z,2.78
2019-03-05T14:13:25.840Z,3.38
2019-03-05T14:18:33.625Z,2.94
2019-03-05T14:23:41.371Z,2.84
2019-03-05T14:28:49.084Z,2.47
2019-03-05T14:33:56.782Z,2.87
2019-03-05T14:39:04.454Z,2.60
2019-03-05T14:44:12.163Z,2.80
2019-03-05T14:49:19.918Z,3.02
2019-03-05T14:54:27.538Z,3.13
2019-03-05T14:59:35.186Z,2.91
2019-03-05T15:04:42.818Z,3.11
2019-03-05T15:09:50.515Z,2.75
2019-03-05T15:14:58.103Z,2.83
2019-03-05T15:20:05.755Z,2.77
2019-03-05T15:25:13.379Z,2.77
2019-03-05T15:30:21.023Z,2.73
2019-03-05T15:35:28.735Z,2.70
2019-03-05T15:40:36.314Z,2.74
2019-03-05T15:45:44.003Z,2.79
2019-03-05T15:50:51.742Z,3.27
2019-03-05T15:55:59.398Z,3.29
2019-03-05T16:01:07.021Z,2.94
2019-03-05T16:06:14.698Z,2.78
2019-03-05T16:11:22.317Z,2.19
2019-03-05T16:16:30.020Z,1.94
2019-03-05T16:21:41.352Z,1.97
2019-03-05T16:26:44.920Z,2.02
2019-03-05T16:31:52.605Z,1.98
2019-03-05T16:37:02.040Z,2.19
2019-03-05T16:42:07.558Z,1.89
2019-03-05T16:47:15.244Z,2.13
2019-03-05T16:52:22.897Z,2.46
2019-03-05T16:57:30.573Z,2.02
2019-03-05T17:02:38.224Z,2.39
2019-03-05T17:07:45.917Z,2.16
2019-03-05T17:12:53.616Z,2.49
2019-03-05T17:18:01.293Z,2.87
2019-03-05T17:23:08.980Z,3.00
2019-03-05T17:28:16.659Z,3.33
2019-03-05T17:33:24.384Z,5.86
2019-03-05T17:38:32.057Z,5.37
2019-03-05T17:43:39.752Z,2.86
2019-03-05T17:48:47.430Z,9.84
2019-03-05T17:53:55.212Z,3.59
2019-03-05T17:59:02.936Z,2.86
2019-03-05T18:04:10.684Z,5.68
2019-03-05T18:09:18.352Z,5.26
2019-03-05T18:14:26.077Z,2.76
2019-03-05T18:19:33.762Z,2.69
2019-03-05T18:24:41.470Z,3.33
2019-03-05T18:29:49.133Z,3.03
2019-03-05T18:34:56.812Z,3.11
2019-03-05T18:40:04.509Z,3.40
2019-03-05T18:45:12.245Z,3.12
2019-03-05T18:50:19.913Z,3.09
2019-03-05T18:55:27.581Z,3.38
2019-03-05T19:00:35.258Z,2.93
2019-03-05T19:05:42.953Z,3.40
2019-03-05T19:10:50.597Z,3.41
2019-03-05T19:15:58.287Z,5.08
2019-03-05T19:21:05.988Z,5.75
2019-03-05T19:26:13.670Z,7.06
2019-03-05T19:31:21.327Z,7.29
2019-03-05T19:36:28.993Z,7.75
2019-03-05T19:41:36.672Z,6.36
2019-03-05T19:47:37.450Z,6.70
2019-03-05T19:52:45.106Z,8.89
2019-03-05T19:57:52.716Z,5.99
2019-03-05T20:03:00.427Z,5.97
2019-03-05T20:08:08.044Z,5.63
2019-03-05T20:13:15.810Z,5.54
2019-03-05T20:18:23.445Z,5.52
2019-03-05T20:23:31.096Z,5.41
2019-03-05T20:28:38.789Z,5.39
2019-03-05T20:33:46.374Z,5.23
2019-03-05T20:38:53.990Z,6.04
2019-03-05T20:44:01.704Z,5.90
2019-03-05T20:49:09.332Z,7.31
2019-03-05T20:54:16.952Z,6.02
2019-03-05T20:59:24.663Z,5.91
2019-03-05T21:04:32.303Z,6.01
2019-03-05T21:09:39.965Z,5.58
2019-03-05T21:14:47.668Z,5.88
2019-03-05T21:19:55.353Z,6.02
2019-03-05T21:25:03.050Z,5.59
2019-03-05T21:30:10.744Z,5.36
2019-03-05T21:35:18.538Z,5.53
2019-03-05T21:40:26.232Z,4.87
2019-03-05T21:45:33.885Z,4.53
2019-03-05T21:50:41.560Z,4.89
2019-03-05T21:55:49.276Z,4.44
2019-03-05T22:00:56.949Z,4.54
2019-03-05T22:06:04.607Z,4.49
2019-03-05T22:11:12.285Z,4.45
2019-03-05T22:16:19.953Z,5.01
2019-03-05T22:21:27.616Z,5.20
2019-03-05T22:26:35.284Z,4.76
2019-03-05T22:31:42.979Z,4.51
2019-03-05T22:36:50.665Z,4.40
2019-03-05T22:41:58.336Z,4.99
2019-03-05T22:47:06.116Z,5.20
2019-03-05T22:52:13.785Z,4.71
2019-03-05T22:57:21.537Z,5.47
2019-03-05T23:02:29.237Z,5.09
2019-03-05T23:07:36.929Z,5.52
2019-03-05T23:12:44.837Z,6.66
2019-03-05T23:17:52.626Z,6.82
2019-03-05T23:23:00.352Z,7.21
2019-03-05T23:28:08.020Z,8.40
2019-03-05T23:33:15.711Z,8.57
2019-03-05T23:38:23.408Z,9.52
2019-03-05T23:43:31.082Z,10.11
2019-03-05T23:48:38.764Z,10.46
2019-03-05T23:53:46.461Z,12.70
2019-03-05T23:58:54.169Z,11.39
